createdAt,value
2018-08-09T20:35:01.519Z,25.50
2018-08-09T20:37:29.796Z,25.53
2018-08-09T20:39:58.089Z,25.53
2018-08-09T20:42:26.375Z,25.49
2018-08-09T20:44:54.724Z,25.49
2018-08-09T20:47:23.639Z,25.55
2018-08-09T20:49:52.079Z,25.53
2018-08-09T20:52:20.371Z,25.56
2018-08-09T20:54:48.723Z,25.58
2018-08-09T20:57:16.995Z,25.58
2018-08-09T20:59:45.547Z,25.60
2018-08-09T21:02:13.894Z,25.59
2018-08-09T21:04:42.266Z,25.60
2018-08-09T21:07:10.761Z,25.58
2018-08-09T21:09:39.092Z,25.63
2018-08-09T21:12:07.355Z,25.64
2018-08-09T21:14:36.030Z,25.67
2018-08-09T21:17:04.466Z,25.66
2018-08-09T21:19:32.802Z,25.65
2018-08-09T21:22:01.189Z,25.64
2018-08-09T21:24:29.679Z,25.66
2018-08-09T21:26:58.039Z,25.65
2018-08-09T21:29:26.291Z,25.65
2018-08-09T21:31:54.688Z,25.64
2018-08-09T21:34:22.977Z,25.60
2018-08-09T21:36:51.410Z,25.59
2018-08-09T21:39:19.703Z,25.57
2018-08-09T21:41:47.959Z,25.54
2018-08-09T21:44:16.369Z,25.52
2018-08-09T21:46:44.585Z,25.52
2018-08-09T21:49:12.889Z,25.52
2018-08-09T21:51:41.164Z,25.49
2018-08-09T21:54:09.484Z,25.48
2018-08-09T21:56:37.804Z,25.49
2018-08-09T21:59:06.133Z,25.49
2018-08-09T22:01:34.437Z,25.49
2018-08-09T22:04:02.650Z,25.48
2018-08-09T22:06:36.323Z,25.48
2018-08-09T22:09:13.507Z,25.47
2018-08-09T22:11:47.303Z,25.47
2018-08-09T22:14:21.464Z,25.47
2018-08-09T22:16:55.070Z,25.46
2018-08-09T22:19:28.726Z,25.46
2018-08-09T22:22:14.523Z,25.44
2018-08-09T22:24:42.930Z,25.43
2018-08-09T22:27:11.603Z,25.44
2018-08-09T22:29:39.818Z,25.44
2018-08-09T22:32:08.042Z,25.44
2018-08-09T22:34:36.283Z,25.42
2018-08-09T22:37:04.571Z,25.40
2018-08-09T22:39:32.809Z,25.40
2018-08-09T22:42:01.017Z,25.40
2018-08-09T22:44:29.286Z,25.40
2018-08-09T22:46:57.534Z,25.38
2018-08-09T22:49:25.848Z,25.38
2018-08-09T22:51:54.094Z,25.38
2018-08-09T22:54:22.310Z,25.35
2018-08-09T22:56:50.836Z,25.32
2018-08-09T22:59:19.261Z,25.34
2018-08-09T23:01:47.527Z,25.33
2018-08-09T23:04:15.989Z,25.34
2018-08-09T23:06:44.221Z,25.36
2018-08-09T23:09:12.476Z,25.35
2018-08-09T23:11:40.843Z,25.34
2018-08-09T23:14:09.069Z,25.33
2018-08-09T23:16:37.350Z,25.33
2018-08-09T23:19:05.630Z,25.33
2018-08-09T23:21:33.870Z,25.33
2018-08-09T23:24:02.159Z,25.32
2018-08-09T23:26:30.448Z,25.32
2018-08-09T23:28:58.738Z,25.32
2018-08-09T23:31:26.970Z,25.31
2018-08-09T23:33:55.200Z,25.30
2018-08-09T23:36:23.452Z,25.31
